Bixby, Minnesota
Current Conditions -  °F | °C
As of 2:53 AM on Friday 28 Nov 2014 (Local Time) from KTOB Reporting Station
Overcast Overcast  
Wind Chill: -7°   Ceiling: 6500
Heat Index: 10°   Visibility: 10mi
Dew Point:   Wind: 16mph
Humidity: 92%   Direction: 140°SE
Pressure: 30.11"   Gusts: NA
Location:  43.9356°N, 93.0454°W
Report Text: KTOB 280853Z AUTO 14014KT 10SM OVC065 M12/M13 A3011 RMK AO2
Loading
Personal Weather Stations






























Interactive Weather Map New forecast layout! Learn more

10-Day Weather Forecast

Advertisements
Track Severe Weather on mobile